sensor_id;sensor_type;location;lat;lon;timestamp;temperature;humidity
18717;DHT22;9487;50.892;6.906;2023-06-22T09:46:06;27.50;99.90
18717;DHT22;9487;50.892;6.906;2023-06-22T09:48:34;27.50;99.90
18717;DHT22;9487;50.892;6.906;2023-06-22T09:51:01;27.50;99.90
18717;DHT22;9487;50.892;6.906;2023-06-22T09:53:28;27.50;99.90
18717;DHT22;9487;50.892;6.906;2023-06-22T09:55:55;27.60;99.90
18717;DHT22;9487;50.892;6.906;2023-06-22T09:58:22;27.70;99.90
18717;DHT22;9487;50.892;6.906;2023-06-22T10:00:49;27.70;99.90
18717;DHT22;9487;50.892;6.906;2023-06-22T10:03:18;27.60;99.90
18717;DHT22;9487;50.892;6.906;2023-06-22T10:05:44;27.60;99.90
18717;DHT22;9487;50.892;6.906;2023-06-22T10:08:11;27.50;99.90
18717;DHT22;9487;50.892;6.906;2023-06-22T10:10:38;27.40;99.90
18717;DHT22;9487;50.892;6.906;2023-06-22T10:13:08;27.30;99.90
18717;DHT22;9487;50.892;6.906;2023-06-22T10:15:36;27.20;99.90
18717;DHT22;9487;50.892;6.906;2023-06-22T10:18:04;27.10;99.90
18717;DHT22;9487;50.892;6.906;2023-06-22T10:20:32;27.10;99.90
18717;DHT22;9487;50.892;6.906;2023-06-22T10:22:59;26.90;99.90
18717;DHT22;9487;50.892;6.906;2023-06-22T10:25:26;26.80;99.90
18717;DHT22;9487;50.892;6.906;2023-06-22T10:27:53;26.60;99.90
18717;DHT22;9487;50.892;6.906;2023-06-22T10:30:20;26.70;99.90
18717;DHT22;9487;50.892;6.906;2023-06-22T10:32:47;26.60;99.90
18717;DHT22;9487;50.892;6.906;2023-06-22T10:35:14;26.60;99.90
18717;DHT22;9487;50.892;6.906;2023-06-22T10:37:43;26.60;99.90
18717;DHT22;9487;50.892;6.906;2023-06-22T10:40:11;26.50;99.90
18717;DHT22;9487;50.892;6.906;2023-06-22T10:42:38;26.30;99.90
18717;DHT22;9487;50.892;6.906;2023-06-22T10:45:07;26.20;99.90
18717;DHT22;9487;50.892;6.906;2023-06-22T10:47:34;26.00;99.90
18717;DHT22;9487;50.892;6.906;2023-06-22T10:50:01;25.80;99.90
18717;DHT22;9487;50.892;6.906;2023-06-22T10:52:28;25.50;99.90
18717;DHT22;9487;50.892;6.906;2023-06-22T10:54:57;25.30;99.90
18717;DHT22;9487;50.892;6.906;2023-06-22T10:57:24;25.10;99.90
18717;DHT22;9487;50.892;6.906;2023-06-22T10:59:51;24.90;99.90
18717;DHT22;9487;50.892;6.906;2023-06-22T11:02:18;24.70;99.90
18717;DHT22;9487;50.892;6.906;2023-06-22T11:04:45;24.50;99.90
18717;DHT22;9487;50.892;6.906;2023-06-22T11:07:13;24.20;99.90
18717;DHT22;9487;50.892;6.906;2023-06-22T11:09:40;24.10;99.90
18717;DHT22;9487;50.892;6.906;2023-06-22T11:12:09;23.70;99.90
18717;DHT22;9487;50.892;6.906;2023-06-22T11:14:35;23.30;99.90
18717;DHT22;9487;50.892;6.906;2023-06-22T11:17:02;23.00;99.90
18717;DHT22;9487;50.892;6.906;2023-06-22T11:19:29;22.90;99.90
18717;DHT22;9487;50.892;6.906;2023-06-22T11:21:56;22.70;99.90
18717;DHT22;9487;50.892;6.906;2023-06-22T11:24:23;22.80;99.90
18717;DHT22;9487;50.892;6.906;2023-06-22T11:26:50;22.90;99.90
18717;DHT22;9487;50.892;6.906;2023-06-22T11:29:19;23.00;99.90
18717;DHT22;9487;50.892;6.906;2023-06-22T11:31:45;23.10;99.90
18717;DHT22;9487;50.892;6.906;2023-06-22T11:34:12;23.30;99.90
18717;DHT22;9487;50.892;6.906;2023-06-22T11:36:40;23.60;99.90
18717;DHT22;9487;50.892;6.906;2023-06-22T11:39:08;23.80;99.90
18717;DHT22;9487;50.892;6.906;2023-06-22T11:41:35;23.40;99.90
18717;DHT22;9487;50.892;6.906;2023-06-22T11:44:02;23.00;99.90
18717;DHT22;9487;50.892;6.906;2023-06-22T11:46:32;22.80;99.90
18717;DHT22;9487;50.892;6.906;2023-06-22T11:49:01;22.80;99.90
18717;DHT22;9487;50.892;6.906;2023-06-22T11:51:29;23.10;99.90
18717;DHT22;9487;50.892;6.906;2023-06-22T11:53:57;23.60;99.90
18717;DHT22;9487;50.892;6.906;2023-06-22T11:56:24;24.10;99.90
18717;DHT22;9487;50.892;6.906;2023-06-22T11:58:50;24.50;99.90
18717;DHT22;9487;50.892;6.906;2023-06-22T12:01:17;24.90;99.90
18717;DHT22;9487;50.892;6.906;2023-06-22T12:03:46;25.20;99.90
18717;DHT22;9487;50.892;6.906;2023-06-22T12:06:14;25.50;99.90
18717;DHT22;9487;50.892;6.906;2023-06-22T12:08:40;25.50;99.90
18717;DHT22;9487;50.892;6.906;2023-06-22T12:11:07;24.60;99.90
18717;DHT22;9487;50.892;6.906;2023-06-22T12:13:34;24.30;99.90
18717;DHT22;9487;50.892;6.906;2023-06-22T12:16:01;24.20;99.90
18717;DHT22;9487;50.892;6.906;2023-06-22T12:18:28;24.00;99.90
18717;DHT22;9487;50.892;6.906;2023-06-22T12:20:56;24.10;99.90
18717;DHT22;9487;50.892;6.906;2023-06-22T12:23:23;24.10;99.90
18717;DHT22;9487;50.892;6.906;2023-06-22T12:25:50;24.00;99.90
18717;DHT22;9487;50.892;6.906;2023-06-22T12:28:17;24.20;99.90
18717;DHT22;9487;50.892;6.906;2023-06-22T12:30:44;24.20;99.90
18717;DHT22;9487;50.892;6.906;2023-06-22T12:33:11;24.10;99.90
18717;DHT22;9487;50.892;6.906;2023-06-22T12:35:37;24.20;99.90
18717;DHT22;9487;50.892;6.906;2023-06-22T12:38:06;24.30;99.90
18717;DHT22;9487;50.892;6.906;2023-06-22T12:40:33;24.30;99.90
18717;DHT22;9487;50.892;6.906;2023-06-22T12:43:00;24.10;99.90
18717;DHT22;9487;50.892;6.906;2023-06-22T12:45:28;24.20;99.90
18717;DHT22;9487;50.892;6.906;2023-06-22T12:47:57;24.30;99.90
18717;DHT22;9487;50.892;6.906;2023-06-22T12:50:25;24.40;99.90
18717;DHT22;9487;50.892;6.906;2023-06-22T12:52:51;24.50;99.90
18717;DHT22;9487;50.892;6.906;2023-06-22T12:55:20;24.70;99.90
18717;DHT22;9487;50.892;6.906;2023-06-22T12:57:47;24.90;99.90
18717;DHT22;9487;50.892;6.906;2023-06-22T13:00:14;24.80;99.90
18717;DHT22;9487;50.892;6.906;2023-06-22T13:02:41;24.50;99.90
18717;DHT22;9487;50.892;6.906;2023-06-22T13:05:09;24.70;99.90
18717;DHT22;9487;50.892;6.906;2023-06-22T13:07:36;24.90;99.90
18717;DHT22;9487;50.892;6.906;2023-06-22T13:10:03;24.90;99.90
18717;DHT22;9487;50.892;6.906;2023-06-22T13:12:32;25.10;99.90
18717;DHT22;9487;50.892;6.906;2023-06-22T13:14:59;25.10;99.90
18717;DHT22;9487;50.892;6.906;2023-06-22T13:17:25;25.20;99.90
18717;DHT22;9487;50.892;6.906;2023-06-22T13:19:52;25.40;99.90
18717;DHT22;9487;50.892;6.906;2023-06-22T13:22:27;25.40;99.90
18717;DHT22;9487;50.892;6.906;2023-06-22T13:24:54;25.60;99.90
18717;DHT22;9487;50.892;6.906;2023-06-22T13:27:21;25.70;99.90
18717;DHT22;9487;50.892;6.906;2023-06-22T13:29:50;26.00;99.90
18717;DHT22;9487;50.892;6.906;2023-06-22T13:32:17;25.50;99.90
18717;DHT22;9487;50.892;6.906;2023-06-22T13:34:44;25.10;99.90
18717;DHT22;9487;50.892;6.906;2023-06-22T13:37:11;25.10;99.90
18717;DHT22;9487;50.892;6.906;2023-06-22T13:39:38;25.40;99.90
18717;DHT22;9487;50.892;6.906;2023-06-22T13:42:05;25.70;99.90
18717;DHT22;9487;50.892;6.906;2023-06-22T13:44:33;26.00;99.90
18717;DHT22;9487;50.892;6.906;2023-06-22T13:47:01;25.90;99.90
18717;DHT22;9487;50.892;6.906;2023-06-22T13:49:28;26.10;99.90
18717;DHT22;9487;50.892;6.906;2023-06-22T13:51:55;26.10;99.90
18717;DHT22;9487;50.892;6.906;2023-06-22T13:54:22;26.20;99.90
18717;DHT22;9487;50.892;6.906;2023-06-22T13:56:49;25.90;99.90
18717;DHT22;9487;50.892;6.906;2023-06-22T13:59:16;26.00;99.90
18717;DHT22;9487;50.892;6.906;2023-06-22T14:01:43;26.00;99.90
18717;DHT22;9487;50.892;6.906;2023-06-22T14:04:11;25.80;99.90
18717;DHT22;9487;50.892;6.906;2023-06-22T14:06:38;26.10;99.90
18717;DHT22;9487;50.892;6.906;2023-06-22T14:09:05;26.30;99.90
18717;DHT22;9487;50.892;6.906;2023-06-22T14:11:32;26.50;99.90
18717;DHT22;9487;50.892;6.906;2023-06-22T14:13:59;26.90;99.90
18717;DHT22;9487;50.892;6.906;2023-06-22T14:16:26;26.40;99.90
18717;DHT22;9487;50.892;6.906;2023-06-22T14:18:53;26.30;99.90
18717;DHT22;9487;50.892;6.906;2023-06-22T14:21:21;25.60;99.90
18717;DHT22;9487;50.892;6.906;2023-06-22T14:23:48;25.50;99.90
18717;DHT22;9487;50.892;6.906;2023-06-22T14:26:16;25.40;99.90
18717;DHT22;9487;50.892;6.906;2023-06-22T14:28:44;25.50;99.90
18717;DHT22;9487;50.892;6.906;2023-06-22T14:31:13;25.50;99.90
18717;DHT22;9487;50.892;6.906;2023-06-22T14:33:40;25.50;99.90
18717;DHT22;9487;50.892;6.906;2023-06-22T14:36:07;25.50;99.90
18717;DHT22;9487;50.892;6.906;2023-06-22T14:38:36;25.50;99.90
18717;DHT22;9487;50.892;6.906;2023-06-22T14:41:03;25.50;99.90
18717;DHT22;9487;50.892;6.906;2023-06-22T14:43:30;25.60;99.90
18717;DHT22;9487;50.892;6.906;2023-06-22T14:45:57;25.60;99.90
18717;DHT22;9487;50.892;6.906;2023-06-22T14:48:24;25.70;99.90
18717;DHT22;9487;50.892;6.906;2023-06-22T14:50:50;25.70;99.90
18717;DHT22;9487;50.892;6.906;2023-06-22T14:53:19;25.80;99.90
18717;DHT22;9487;50.892;6.906;2023-06-22T14:55:47;25.70;99.90
18717;DHT22;9487;50.892;6.906;2023-06-22T14:58:14;25.50;99.90
18717;DHT22;9487;50.892;6.906;2023-06-22T15:00:41;25.30;99.90
18717;DHT22;9487;50.892;6.906;2023-06-22T15:03:08;25.40;99.90
18717;DHT22;9487;50.892;6.906;2023-06-22T15:05:42;25.40;99.90
18717;DHT22;9487;50.892;6.906;2023-06-22T15:08:09;25.50;99.90
18717;DHT22;9487;50.892;6.906;2023-06-22T15:10:37;25.50;99.90
18717;DHT22;9487;50.892;6.906;2023-06-22T15:13:05;25.40;99.90
18717;DHT22;9487;50.892;6.906;2023-06-22T15:15:32;25.20;99.90
18717;DHT22;9487;50.892;6.906;2023-06-22T15:18:00;25.10;99.90
18717;DHT22;9487;50.892;6.906;2023-06-22T15:20:27;25.00;99.90
18717;DHT22;9487;50.892;6.906;2023-06-22T15:22:54;24.70;99.90
18717;DHT22;9487;50.892;6.906;2023-06-22T15:25:21;24.60;99.90
18717;DHT22;9487;50.892;6.906;2023-06-22T15:27:48;24.30;99.90
18717;DHT22;9487;50.892;6.906;2023-06-22T15:30:17;23.80;99.90
18717;DHT22;9487;50.892;6.906;2023-06-22T15:32:44;23.40;99.90
18717;DHT22;9487;50.892;6.906;2023-06-22T15:35:12;23.50;99.90
18717;DHT22;9487;50.892;6.906;2023-06-22T15:37:40;23.70;99.90
18717;DHT22;9487;50.892;6.906;2023-06-22T15:40:07;23.50;99.90
18717;DHT22;9487;50.892;6.906;2023-06-22T15:42:35;23.50;99.90
18717;DHT22;9487;50.892;6.906;2023-06-22T15:45:02;23.50;99.90
18717;DHT22;9487;50.892;6.906;2023-06-22T15:47:31;23.70;99.90
18717;DHT22;9487;50.892;6.906;2023-06-22T15:49:58;23.70;99.90
18717;DHT22;9487;50.892;6.906;2023-06-22T15:52:24;23.60;99.90
18717;DHT22;9487;50.892;6.906;2023-06-22T15:54:51;23.40;99.90
18717;DHT22;9487;50.892;6.906;2023-06-22T15:57:19;23.30;99.90
18717;DHT22;9487;50.892;6.906;2023-06-22T15:59:47;23.20;99.90
18717;DHT22;9487;50.892;6.906;2023-06-22T16:02:14;23.00;99.90
18717;DHT22;9487;50.892;6.906;2023-06-22T16:04:42;23.10;99.90
18717;DHT22;9487;50.892;6.906;2023-06-22T16:07:09;23.10;99.90
18717;DHT22;9487;50.892;6.906;2023-06-22T16:09:37;23.10;99.90
18717;DHT22;9487;50.892;6.906;2023-06-22T16:12:05;23.10;99.90
18717;DHT22;9487;50.892;6.906;2023-06-22T16:14:34;23.00;99.90
18717;DHT22;9487;50.892;6.906;2023-06-22T16:17:03;23.00;99.90
18717;DHT22;9487;50.892;6.906;2023-06-22T16:19:30;23.10;99.90
18717;DHT22;9487;50.892;6.906;2023-06-22T16:21:58;23.20;99.90
18717;DHT22;9487;50.892;6.906;2023-06-22T16:24:25;23.10;99.90
18717;DHT22;9487;50.892;6.906;2023-06-22T16:26:53;23.20;99.90
18717;DHT22;9487;50.892;6.906;2023-06-22T16:29:20;23.30;99.90
18717;DHT22;9487;50.892;6.906;2023-06-22T16:31:47;23.30;99.90
18717;DHT22;9487;50.892;6.906;2023-06-22T16:34:14;23.40;99.90
18717;DHT22;9487;50.892;6.906;2023-06-22T16:36:41;23.50;99.90
18717;DHT22;9487;50.892;6.906;2023-06-22T16:39:09;23.50;99.90
18717;DHT22;9487;50.892;6.906;2023-06-22T16:41:36;23.30;99.90
18717;DHT22;9487;50.892;6.906;2023-06-22T16:44:03;23.30;99.90
18717;DHT22;9487;50.892;6.906;2023-06-22T16:46:32;23.30;99.90
18717;DHT22;9487;50.892;6.906;2023-06-22T16:49:00;23.30;99.90
18717;DHT22;9487;50.892;6.906;2023-06-22T16:51:26;23.40;99.90
18717;DHT22;9487;50.892;6.906;2023-06-22T16:53:54;23.50;99.90
18717;DHT22;9487;50.892;6.906;2023-06-22T16:56:25;23.70;99.90
18717;DHT22;9487;50.892;6.906;2023-06-22T16:58:53;23.80;99.90
18717;DHT22;9487;50.892;6.906;2023-06-22T17:01:23;24.00;99.90
18717;DHT22;9487;50.892;6.906;2023-06-22T17:03:59;24.00;99.90
18717;DHT22;9487;50.892;6.906;2023-06-22T17:06:27;24.00;99.90
18717;DHT22;9487;50.892;6.906;2023-06-22T17:08:55;23.80;99.90
18717;DHT22;9487;50.892;6.906;2023-06-22T17:11:24;23.80;99.90
18717;DHT22;9487;50.892;6.906;2023-06-22T17:13:51;23.60;99.90
18717;DHT22;9487;50.892;6.906;2023-06-22T17:16:19;23.50;99.90
18717;DHT22;9487;50.892;6.906;2023-06-22T17:18:46;23.30;99.90
18717;DHT22;9487;50.892;6.906;2023-06-22T17:21:20;23.30;99.90
18717;DHT22;9487;50.892;6.906;2023-06-22T17:23:48;23.40;99.90
18717;DHT22;9487;50.892;6.906;2023-06-22T17:26:15;23.50;99.90
18717;DHT22;9487;50.892;6.906;2023-06-22T17:28:51;23.70;99.90
18717;DHT22;9487;50.892;6.906;2023-06-22T17:31:18;23.80;99.90
18717;DHT22;9487;50.892;6.906;2023-06-22T17:33:48;23.90;99.90
18717;DHT22;9487;50.892;6.906;2023-06-22T17:36:16;24.00;99.90
18717;DHT22;9487;50.892;6.906;2023-06-22T17:38:43;23.90;99.90
18717;DHT22;9487;50.892;6.906;2023-06-22T17:41:10;23.90;99.90
18717;DHT22;9487;50.892;6.906;2023-06-22T17:43:43;23.90;99.90
18717;DHT22;9487;50.892;6.906;2023-06-22T17:46:13;23.90;99.90
18717;DHT22;9487;50.892;6.906;2023-06-22T17:48:45;23.90;99.90
18717;DHT22;9487;50.892;6.906;2023-06-22T17:51:14;23.90;99.90
18717;DHT22;9487;50.892;6.906;2023-06-22T17:53:47;23.80;99.90
18717;DHT22;9487;50.892;6.906;2023-06-22T17:58:50;23.80;99.90
18717;DHT22;9487;50.892;6.906;2023-06-22T18:01:27;23.70;99.90
18717;DHT22;9487;50.892;6.906;2023-06-22T18:03:55;23.70;99.90
18717;DHT22;9487;50.892;6.906;2023-06-22T18:06:25;23.60;99.90
18717;DHT22;9487;50.892;6.906;2023-06-22T18:08:57;23.50;99.90
18717;DHT22;9487;50.892;6.906;2023-06-22T18:11:31;23.50;99.90
18717;DHT22;9487;50.892;6.906;2023-06-22T18:13:59;23.40;99.90
18717;DHT22;9487;50.892;6.906;2023-06-22T18:16:28;23.30;99.90
18717;DHT22;9487;50.892;6.906;2023-06-22T18:18:56;23.20;99.90
18717;DHT22;9487;50.892;6.906;2023-06-22T18:21:24;23.20;99.90
18717;DHT22;9487;50.892;6.906;2023-06-22T18:23:52;22.90;99.90
18717;DHT22;9487;50.892;6.906;2023-06-22T18:26:20;22.70;99.90
18717;DHT22;9487;50.892;6.906;2023-06-22T18:28:50;22.50;99.90
18717;DHT22;9487;50.892;6.906;2023-06-22T18:31:18;22.30;99.90
18717;DHT22;9487;50.892;6.906;2023-06-22T18:33:48;22.00;99.90
18717;DHT22;9487;50.892;6.906;2023-06-22T18:36:18;21.90;99.90
18717;DHT22;9487;50.892;6.906;2023-06-22T18:38:46;21.80;99.90
18717;DHT22;9487;50.892;6.906;2023-06-22T18:41:22;21.70;99.90
18717;DHT22;9487;50.892;6.906;2023-06-22T18:43:52;21.70;99.90
18717;DHT22;9487;50.892;6.906;2023-06-22T18:46:30;21.40;99.90
18717;DHT22;9487;50.892;6.906;2023-06-22T18:49:01;21.20;99.90
18717;DHT22;9487;50.892;6.906;2023-06-22T18:51:29;21.20;99.90
18717;DHT22;9487;50.892;6.906;2023-06-22T18:54:05;21.20;99.90
18717;DHT22;9487;50.892;6.906;2023-06-22T18:56:32;21.20;99.90
18717;DHT22;9487;50.892;6.906;2023-06-22T18:59:17;21.20;99.90
18717;DHT22;9487;50.892;6.906;2023-06-22T19:02:08;21.00;99.90
18717;DHT22;9487;50.892;6.906;2023-06-22T19:04:36;21.00;99.90
18717;DHT22;9487;50.892;6.906;2023-06-22T19:07:05;20.80;99.90
18717;DHT22;9487;50.892;6.906;2023-06-22T19:09:33;20.70;99.90
18717;DHT22;9487;50.892;6.906;2023-06-22T19:12:19;20.40;99.90
18717;DHT22;9487;50.892;6.906;2023-06-22T19:15:08;20.30;99.90
18717;DHT22;9487;50.892;6.906;2023-06-22T19:17:36;20.10;99.90
18717;DHT22;9487;50.892;6.906;2023-06-22T19:20:06;19.90;99.90
18717;DHT22;9487;50.892;6.906;2023-06-22T19:22:47;19.70;99.90
18717;DHT22;9487;50.892;6.906;2023-06-22T19:25:20;19.60;99.90
18717;DHT22;9487;50.892;6.906;2023-06-22T19:27:48;19.60;99.90
18717;DHT22;9487;50.892;6.906;2023-06-22T19:30:16;19.50;99.90
18717;DHT22;9487;50.892;6.906;2023-06-22T19:32:44;19.40;99.90
18717;DHT22;9487;50.892;6.906;2023-06-22T19:35:14;19.30;99.90
18717;DHT22;9487;50.892;6.906;2023-06-22T19:37:41;19.30;99.90
18717;DHT22;9487;50.892;6.906;2023-06-22T19:40:10;19.20;99.90
18717;DHT22;9487;50.892;6.906;2023-06-22T19:42:38;19.10;99.90
18717;DHT22;9487;50.892;6.906;2023-06-22T19:45:06;19.00;99.90
18717;DHT22;9487;50.892;6.906;2023-06-22T19:47:33;19.00;99.90
18717;DHT22;9487;50.892;6.906;2023-06-22T19:50:01;19.00;99.90
18717;DHT22;9487;50.892;6.906;2023-06-22T19:52:35;18.90;99.90
18717;DHT22;9487;50.892;6.906;2023-06-22T19:55:02;18.90;99.90
18717;DHT22;9487;50.892;6.906;2023-06-22T19:57:34;18.80;99.90
18717;DHT22;9487;50.892;6.906;2023-06-22T20:00:02;18.60;99.90
18717;DHT22;9487;50.892;6.906;2023-06-22T20:02:33;18.50;99.90
18717;DHT22;9487;50.892;6.906;2023-06-22T20:05:04;18.30;99.90
18717;DHT22;9487;50.892;6.906;2023-06-22T20:07:35;18.10;99.90
18717;DHT22;9487;50.892;6.906;2023-06-22T20:10:14;17.90;99.90
18717;DHT22;9487;50.892;6.906;2023-06-22T20:12:41;17.80;99.90
18717;DHT22;9487;50.892;6.906;2023-06-22T20:15:21;17.70;99.90
18717;DHT22;9487;50.892;6.906;2023-06-22T20:17:56;17.70;99.90
18717;DHT22;9487;50.892;6.906;2023-06-22T20:20:25;17.60;99.90
18717;DHT22;9487;50.892;6.906;2023-06-22T20:22:56;17.60;99.90
18717;DHT22;9487;50.892;6.906;2023-06-22T20:25:25;17.60;99.90
18717;DHT22;9487;50.892;6.906;2023-06-22T20:27:54;17.60;99.90
18717;DHT22;9487;50.892;6.906;2023-06-22T20:30:21;17.60;99.90
18717;DHT22;9487;50.892;6.906;2023-06-22T20:32:52;17.60;99.90
18717;DHT22;9487;50.892;6.906;2023-06-22T20:35:20;17.60;99.90
18717;DHT22;9487;50.892;6.906;2023-06-22T20:37:48;17.60;99.90
18717;DHT22;9487;50.892;6.906;2023-06-22T20:40:20;17.70;99.90
18717;DHT22;9487;50.892;6.906;2023-06-22T20:42:55;17.80;99.90
18717;DHT22;9487;50.892;6.906;2023-06-22T20:45:22;17.90;99.90
18717;DHT22;9487;50.892;6.906;2023-06-22T20:47:50;18.00;99.90
18717;DHT22;9487;50.892;6.906;2023-06-22T20:50:18;18.10;99.90
18717;DHT22;9487;50.892;6.906;2023-06-22T20:52:44;18.10;99.90
18717;DHT22;9487;50.892;6.906;2023-06-22T20:55:12;18.10;99.90
18717;DHT22;9487;50.892;6.906;2023-06-22T20:57:41;18.20;99.90
18717;DHT22;9487;50.892;6.906;2023-06-22T21:00:10;18.30;99.90
18717;DHT22;9487;50.892;6.906;2023-06-22T21:02:37;18.30;99.90
18717;DHT22;9487;50.892;6.906;2023-06-22T21:05:06;18.40;99.90
18717;DHT22;9487;50.892;6.906;2023-06-22T21:07:33;18.40;99.90
18717;DHT22;9487;50.892;6.906;2023-06-22T21:10:00;18.50;99.90
18717;DHT22;9487;50.892;6.906;2023-06-22T21:12:26;18.50;99.90
18717;DHT22;9487;50.892;6.906;2023-06-22T21:14:55;18.50;99.90
18717;DHT22;9487;50.892;6.906;2023-06-22T21:17:22;18.50;99.90
18717;DHT22;9487;50.892;6.906;2023-06-22T21:19:50;18.50;99.90
18717;DHT22;9487;50.892;6.906;2023-06-22T21:22:17;18.40;99.90
18717;DHT22;9487;50.892;6.906;2023-06-22T21:24:45;18.50;99.90
18717;DHT22;9487;50.892;6.906;2023-06-22T21:27:12;18.50;99.90
18717;DHT22;9487;50.892;6.906;2023-06-22T21:29:39;18.50;99.90
18717;DHT22;9487;50.892;6.906;2023-06-22T21:32:08;18.50;99.90
18717;DHT22;9487;50.892;6.906;2023-06-22T21:34:35;18.50;99.90
18717;DHT22;9487;50.892;6.906;2023-06-22T21:37:02;18.50;99.90
18717;DHT22;9487;50.892;6.906;2023-06-22T21:39:29;18.50;99.90
18717;DHT22;9487;50.892;6.906;2023-06-22T21:41:56;18.50;99.90
18717;DHT22;9487;50.892;6.906;2023-06-22T21:44:23;18.50;99.90
18717;DHT22;9487;50.892;6.906;2023-06-22T21:46:50;18.50;99.90
18717;DHT22;9487;50.892;6.906;2023-06-22T21:49:18;18.60;99.90
18717;DHT22;9487;50.892;6.906;2023-06-22T21:51:45;18.60;99.90
18717;DHT22;9487;50.892;6.906;2023-06-22T21:54:12;18.50;99.90
18717;DHT22;9487;50.892;6.906;2023-06-22T21:56:41;18.60;99.90
18717;DHT22;9487;50.892;6.906;2023-06-22T21:59:08;18.60;99.90
18717;DHT22;9487;50.892;6.906;2023-06-22T22:01:35;18.50;99.90
18717;DHT22;9487;50.892;6.906;2023-06-22T22:04:02;18.50;99.90
18717;DHT22;9487;50.892;6.906;2023-06-22T22:06:30;18.50;99.90
18717;DHT22;9487;50.892;6.906;2023-06-22T22:08:59;18.50;99.90
18717;DHT22;9487;50.892;6.906;2023-06-22T22:11:25;18.50;99.90
18717;DHT22;9487;50.892;6.906;2023-06-22T22:13:52;18.50;99.90
18717;DHT22;9487;50.892;6.906;2023-06-22T22:16:19;18.50;99.90
18717;DHT22;9487;50.892;6.906;2023-06-22T22:18:46;18.60;99.90
18717;DHT22;9487;50.892;6.906;2023-06-22T22:21:13;18.50;99.90
18717;DHT22;9487;50.892;6.906;2023-06-22T22:23:42;18.50;99.90
18717;DHT22;9487;50.892;6.906;2023-06-22T22:26:08;18.60;99.90
18717;DHT22;9487;50.892;6.906;2023-06-22T22:28:36;18.50;99.90
18717;DHT22;9487;50.892;6.906;2023-06-22T22:31:02;18.50;99.90
18717;DHT22;9487;50.892;6.906;2023-06-22T22:33:29;18.50;99.90
18717;DHT22;9487;50.892;6.906;2023-06-22T22:35:56;18.50;99.90
18717;DHT22;9487;50.892;6.906;2023-06-22T22:38:24;18.50;99.90
18717;DHT22;9487;50.892;6.906;2023-06-22T22:40:53;18.40;99.90
18717;DHT22;9487;50.892;6.906;2023-06-22T22:43:19;18.40;99.90
18717;DHT22;9487;50.892;6.906;2023-06-22T22:45:46;18.30;99.90
18717;DHT22;9487;50.892;6.906;2023-06-22T22:48:13;18.30;99.90
18717;DHT22;9487;50.892;6.906;2023-06-22T22:50:40;18.30;99.90
18717;DHT22;9487;50.892;6.906;2023-06-22T22:53:07;18.30;99.90
18717;DHT22;9487;50.892;6.906;2023-06-22T22:55:35;18.30;99.90
18717;DHT22;9487;50.892;6.906;2023-06-22T22:58:03;18.30;99.90
18717;DHT22;9487;50.892;6.906;2023-06-22T23:00:31;18.40;99.90
18717;DHT22;9487;50.892;6.906;2023-06-22T23:02:58;18.30;99.90
18717;DHT22;9487;50.892;6.906;2023-06-22T23:05:27;18.30;99.90
18717;DHT22;9487;50.892;6.906;2023-06-22T23:07:54;18.30;99.90
18717;DHT22;9487;50.892;6.906;2023-06-22T23:10:21;18.20;99.90
18717;DHT22;9487;50.892;6.906;2023-06-22T23:12:48;18.20;99.90
18717;DHT22;9487;50.892;6.906;2023-06-22T23:15:16;18.20;99.90
18717;DHT22;9487;50.892;6.906;2023-06-22T23:17:43;18.20;99.90
18717;DHT22;9487;50.892;6.906;2023-06-22T23:20:10;18.20;99.90
18717;DHT22;9487;50.892;6.906;2023-06-22T23:22:42;18.20;99.90
18717;DHT22;9487;50.892;6.906;2023-06-22T23:25:09;18.20;99.90
18717;DHT22;9487;50.892;6.906;2023-06-22T23:27:36;18.20;99.90
18717;DHT22;9487;50.892;6.906;2023-06-22T23:30:04;18.20;99.90
18717;DHT22;9487;50.892;6.906;2023-06-22T23:32:36;18.20;99.90
18717;DHT22;9487;50.892;6.906;2023-06-22T23:35:05;18.20;99.90
18717;DHT22;9487;50.892;6.906;2023-06-22T23:37:35;18.20;99.90
18717;DHT22;9487;50.892;6.906;2023-06-22T23:40:02;18.20;99.90
18717;DHT22;9487;50.892;6.906;2023-06-22T23:42:37;18.20;99.90
18717;DHT22;9487;50.892;6.906;2023-06-22T23:45:05;18.20;99.90
18717;DHT22;9487;50.892;6.906;2023-06-22T23:47:32;18.10;99.90
18717;DHT22;9487;50.892;6.906;2023-06-22T23:50:02;18.10;99.90
18717;DHT22;9487;50.892;6.906;2023-06-22T23:52:29;18.20;99.90
18717;DHT22;9487;50.892;6.906;2023-06-22T23:54:56;18.10;99.90
18717;DHT22;9487;50.892;6.906;2023-06-22T23:57:23;18.10;99.90
18717;DHT22;9487;50.892;6.906;2023-06-22T23:59:50;18.10;99.90
